createdAt,value
2023-06-02T00:00:25.585Z,10.60
2023-06-02T00:03:12.010Z,11.80
2023-06-02T00:05:41.021Z,9.00
2023-06-02T00:08:12.635Z,7.70
2023-06-02T00:10:41.754Z,9.30
2023-06-02T00:13:11.665Z,8.80
2023-06-02T00:15:40.620Z,10.20
2023-06-02T00:18:13.296Z,9.10
2023-06-02T00:20:42.838Z,5.80
2023-06-02T00:23:13.858Z,6.90
2023-06-02T00:25:40.430Z,10.40
2023-06-02T00:28:09.502Z,8.30
2023-06-02T00:30:36.184Z,8.20
2023-06-02T00:33:05.305Z,11.90
2023-06-02T00:35:34.684Z,10.20
2023-06-02T00:38:05.184Z,10.80
2023-06-02T00:40:32.845Z,7.20
2023-06-02T00:43:02.851Z,7.80
2023-06-02T00:45:29.604Z,9.60
2023-06-02T00:48:01.575Z,11.40
2023-06-02T00:50:32.155Z,12.90
2023-06-02T00:52:59.543Z,8.50
2023-06-02T00:55:30.592Z,8.40
2023-06-02T00:58:00.664Z,11.40
2023-06-02T01:00:33.647Z,8.30
2023-06-02T01:03:00.713Z,9.70
2023-06-02T01:05:27.889Z,13.30
2023-06-02T01:07:59.240Z,9.00
2023-06-02T01:43:34.600Z,11.20
2023-06-02T01:46:03.659Z,10.40
2023-06-02T01:48:30.709Z,15.70
2023-06-02T01:50:57.469Z,11.10
2023-06-02T01:53:27.055Z,11.70
2023-06-02T01:55:56.715Z,15.90
2023-06-02T01:58:23.345Z,11.90
2023-06-02T02:00:50.621Z,14.20
2023-06-02T02:03:18.281Z,12.60
2023-06-02T02:05:47.469Z,18.00
2023-06-02T02:08:16.625Z,10.80
2023-06-02T02:10:45.436Z,13.00
2023-06-02T02:13:11.927Z,11.00
2023-06-02T02:15:39.137Z,12.00
2023-06-02T02:18:16.038Z,12.10
2023-06-02T02:20:45.031Z,10.90
2023-06-02T02:23:12.059Z,11.80
2023-06-02T02:25:38.710Z,11.20
2023-06-02T02:28:05.282Z,9.70
2023-06-02T02:30:32.084Z,11.30
2023-06-02T02:33:03.086Z,10.30
2023-06-02T02:35:30.014Z,10.80
2023-06-02T02:37:57.603Z,10.30
2023-06-02T02:40:26.216Z,12.50
2023-06-02T02:42:55.084Z,10.10
2023-06-02T02:45:23.996Z,11.40
2023-06-02T02:47:53.255Z,9.40
2023-06-02T02:50:22.403Z,10.30
2023-06-02T02:52:49.079Z,9.90
2023-06-02T02:55:16.216Z,13.70
2023-06-02T02:57:42.984Z,11.60
2023-06-02T03:00:10.195Z,16.00
2023-06-02T03:02:37.237Z,11.20
2023-06-02T03:05:07.425Z,12.80
2023-06-02T03:07:39.987Z,12.20
2023-06-02T03:10:08.935Z,9.00
2023-06-02T03:12:38.355Z,11.80
2023-06-02T03:15:07.769Z,20.90
2023-06-02T03:17:38.074Z,8.90
2023-06-02T03:20:08.646Z,9.80
2023-06-02T03:22:38.632Z,11.10
2023-06-02T03:25:11.253Z,11.00
2023-06-02T03:27:40.590Z,12.00
2023-06-02T03:30:08.008Z,12.00
2023-06-02T03:32:36.263Z,10.00
2023-06-02T03:35:03.334Z,11.60
2023-06-02T03:37:35.029Z,15.30
2023-06-02T03:40:04.757Z,15.30
2023-06-02T03:42:35.382Z,11.10
2023-06-02T03:45:03.603Z,13.70
2023-06-02T03:47:32.883Z,11.60
2023-06-02T03:49:59.428Z,14.80
2023-06-02T03:52:31.035Z,10.90
2023-06-02T03:55:01.169Z,14.90
2023-06-02T03:57:28.484Z,12.30
2023-06-02T03:59:55.611Z,10.90
2023-06-02T04:02:22.519Z,9.50
2023-06-02T04:04:51.821Z,14.10
2023-06-02T04:07:19.274Z,12.00
2023-06-02T04:09:45.911Z,10.20
2023-06-02T04:12:12.478Z,9.90
2023-06-02T04:14:41.162Z,14.30
2023-06-02T04:17:08.098Z,14.30
2023-06-02T04:19:34.738Z,12.80
2023-06-02T04:22:06.017Z,14.20
2023-06-02T04:24:41.530Z,12.40
2023-06-02T04:27:09.349Z,11.30
2023-06-02T04:29:41.533Z,11.20
2023-06-02T04:32:13.363Z,13.20
2023-06-02T04:34:42.436Z,7.10
2023-06-02T04:37:08.917Z,10.50
2023-06-02T04:39:37.978Z,11.10
2023-06-02T05:00:04.792Z,11.70
2023-06-02T07:31:11.387Z,11.00
2023-06-02T07:33:38.852Z,10.40
2023-06-02T07:36:05.916Z,11.20
2023-06-02T07:38:37.625Z,8.70
2023-06-02T07:41:06.790Z,15.20
2023-06-02T07:43:35.898Z,11.60
2023-06-02T07:46:03.932Z,10.30
2023-06-02T07:48:33.053Z,9.60
2023-06-02T07:50:59.751Z,13.40
2023-06-02T07:53:28.600Z,12.30
2023-06-02T07:55:57.576Z,13.40
2023-06-02T07:58:24.490Z,14.50
2023-06-02T08:00:51.326Z,13.20
2023-06-02T08:03:18.206Z,4.30
2023-06-02T08:05:46.275Z,6.80
2023-06-02T08:08:13.075Z,8.00
2023-06-02T08:10:40.089Z,8.60
2023-06-02T08:13:11.741Z,9.20
2023-06-02T08:15:40.909Z,8.90
2023-06-02T08:18:17.527Z,5.50
2023-06-02T08:20:46.080Z,6.50
2023-06-02T08:23:14.210Z,6.50
2023-06-02T08:25:41.991Z,8.60
2023-06-02T08:28:10.259Z,5.80
2023-06-02T08:30:50.662Z,6.10
2023-06-02T11:51:16.055Z,7.90
2023-06-02T11:53:47.238Z,6.00
2023-06-02T11:56:16.689Z,6.60
2023-06-02T11:58:45.239Z,5.70
2023-06-02T12:01:19.357Z,6.50
2023-06-02T12:04:06.189Z,9.00
2023-06-02T12:06:34.888Z,4.80
2023-06-02T12:09:15.788Z,7.90
2023-06-02T12:11:44.531Z,11.40
2023-06-02T12:14:16.408Z,8.80
2023-06-02T12:16:47.625Z,11.30
2023-06-02T12:19:19.973Z,10.80
2023-06-02T12:21:48.056Z,10.10
2023-06-02T12:24:52.676Z,6.20
2023-06-02T12:27:49.180Z,5.40
2023-06-02T12:30:30.563Z,7.10
2023-06-02T12:33:14.035Z,14.40
2023-06-02T12:35:53.216Z,7.00
2023-06-02T12:48:31.586Z,5.60
2023-06-02T13:00:51.299Z,8.90
2023-06-02T13:49:10.032Z,6.80
2023-06-02T13:51:36.705Z,4.30
2023-06-02T13:54:06.562Z,6.50
2023-06-02T13:56:33.320Z,4.80
2023-06-02T13:59:00.132Z,9.90
2023-06-02T14:01:32.281Z,7.70
2023-06-02T14:04:05.011Z,6.50
2023-06-02T14:06:35.879Z,5.10
2023-06-02T14:09:17.420Z,6.30
2023-06-02T16:16:07.199Z,4.20
2023-06-02T16:18:36.810Z,2.30
2023-06-02T16:21:03.631Z,4.10
2023-06-02T16:23:34.949Z,4.20
2023-06-02T16:26:05.358Z,2.80
2023-06-02T16:28:32.440Z,3.60
2023-06-02T16:30:59.516Z,3.00
2023-06-02T16:33:28.922Z,6.60
2023-06-02T16:51:01.266Z,3.60
2023-06-02T16:53:29.199Z,3.90
2023-06-02T16:55:56.441Z,4.60
2023-06-02T16:58:29.804Z,2.50
2023-06-02T17:00:57.153Z,8.00
2023-06-02T17:03:25.906Z,6.60
2023-06-02T17:05:53.292Z,3.80
2023-06-02T17:08:23.236Z,5.40
2023-06-02T17:10:50.123Z,2.10
2023-06-02T17:13:17.105Z,4.10
2023-06-02T17:15:44.374Z,2.20
2023-06-02T17:18:11.568Z,2.40
2023-06-02T17:20:44.340Z,4.70
2023-06-02T17:23:11.405Z,9.50
2023-06-02T17:25:38.279Z,5.20
2023-06-02T17:28:07.050Z,9.20
2023-06-02T17:30:33.722Z,2.80
2023-06-02T17:33:02.462Z,3.10
2023-06-02T17:35:29.477Z,3.60
2023-06-02T17:37:56.921Z,3.30
2023-06-02T17:40:30.349Z,2.70
2023-06-02T17:42:56.907Z,2.00
2023-06-02T17:45:25.220Z,3.10
2023-06-02T17:47:52.176Z,5.50
2023-06-02T17:50:19.666Z,1.90
2023-06-02T17:52:46.999Z,5.60
2023-06-02T17:55:14.210Z,6.30
2023-06-02T17:57:41.508Z,3.70
2023-06-02T18:00:10.826Z,4.00
2023-06-02T18:02:42.798Z,2.70
2023-06-02T18:05:09.960Z,6.00
2023-06-02T18:07:37.320Z,5.50
2023-06-02T18:10:05.079Z,6.10
2023-06-02T18:12:33.444Z,8.00
2023-06-02T18:15:01.345Z,9.80
2023-06-02T18:17:28.616Z,5.80
2023-06-02T18:19:55.696Z,5.10
2023-06-02T18:22:22.835Z,10.90
2023-06-02T18:24:50.038Z,7.40
2023-06-02T18:27:19.444Z,6.10
2023-06-02T18:29:46.313Z,4.40
2023-06-02T18:32:15.486Z,8.00
2023-06-02T18:34:42.304Z,4.60
2023-06-02T18:37:09.242Z,2.40
2023-06-02T18:39:36.567Z,7.20
2023-06-02T18:42:05.498Z,5.60
2023-06-02T18:44:32.619Z,3.70
2023-06-02T18:47:01.357Z,6.00
2023-06-02T18:49:29.374Z,8.90
2023-06-02T18:51:56.772Z,4.60
2023-06-02T18:54:27.431Z,7.00
2023-06-02T19:26:26.687Z,3.90
2023-06-02T19:29:26.639Z,3.80
2023-06-02T21:11:44.702Z,5.10
2023-06-02T21:53:05.650Z,3.70
2023-06-02T21:55:39.848Z,7.50
2023-06-02T21:58:08.674Z,9.10
2023-06-02T22:00:35.467Z,2.70
2023-06-02T22:03:02.266Z,3.20
2023-06-02T22:05:29.185Z,3.50
2023-06-02T22:07:57.377Z,4.20
2023-06-02T22:10:27.400Z,4.00
2023-06-02T22:13:02.287Z,2.90
2023-06-02T22:15:29.284Z,3.90
2023-06-02T22:17:56.175Z,4.00
2023-06-02T22:20:24.639Z,5.20
2023-06-02T22:22:51.595Z,4.40
2023-06-02T22:25:18.598Z,8.50
2023-06-02T22:27:45.380Z,10.40
2023-06-02T22:30:12.496Z,5.80
2023-06-02T22:32:39.143Z,4.80
2023-06-02T22:35:06.557Z,4.80
2023-06-02T22:37:33.532Z,5.70
2023-06-02T22:40:00.466Z,4.60
2023-06-02T22:42:27.505Z,5.20
2023-06-02T22:44:57.842Z,3.70
2023-06-02T22:47:25.614Z,4.70
2023-06-02T22:49:52.451Z,3.60
2023-06-02T22:52:19.427Z,4.00
2023-06-02T22:54:46.540Z,3.00
2023-06-02T22:57:15.814Z,5.90
2023-06-02T22:59:45.403Z,2.50
2023-06-02T23:02:12.191Z,4.10
2023-06-02T23:04:41.345Z,3.80
2023-06-02T23:07:08.224Z,4.00
2023-06-02T23:09:35.121Z,5.10
2023-06-02T23:12:02.090Z,4.30
2023-06-02T23:14:29.092Z,4.00
2023-06-02T23:16:55.670Z,5.20
2023-06-02T23:19:22.393Z,6.90
2023-06-02T23:21:49.266Z,2.60
2023-06-02T23:24:16.223Z,4.50
2023-06-02T23:26:43.611Z,3.00
2023-06-02T23:29:10.519Z,6.40
2023-06-02T23:31:37.401Z,4.70
2023-06-02T23:34:04.355Z,3.20
2023-06-02T23:36:31.537Z,6.40
2023-06-02T23:39:00.594Z,4.10
2023-06-02T23:41:27.919Z,2.70
2023-06-02T23:43:54.821Z,4.80
2023-06-02T23:46:21.661Z,7.60
2023-06-02T23:48:48.562Z,2.80
2023-06-02T23:51:15.590Z,4.40
2023-06-02T23:53:42.428Z,2.50
2023-06-02T23:56:09.607Z,3.30
2023-06-02T23:58:36.462Z,4.60
